Time;durP1;ratioP1;P1;durP2;ratioP2;P2;SDS_P1;SDS_P2;PMS_P1;PMS_P2;Temp;Humidity;BMP_temperature;BMP_pressure;BME280_temperature;BME280_humidity;BME280_pressure;Samples;Min_cycle;Max_cycle;Signal;HPM_P1;HPM_P2
2022/04/29 00:01:41;;;;;;;4.30;3.55;;;13.00;53.10;;;;;;4805117;29;20562;-92
2022/04/29 00:04:07;;;;;;;4.57;4.18;;;13.00;53.00;;;;;;4805193;29;20042;-89
2022/04/29 00:06:33;;;;;;;5.25;4.03;;;13.00;53.20;;;;;;4817787;29;20568;-91
2022/04/29 00:08:59;;;;;;;5.57;3.78;;;13.00;53.10;;;;;;4819304;29;20048;-93
2022/04/29 00:11:27;;;;;;;4.32;3.80;;;13.00;53.10;;;;;;4828245;29;20369;-91
2022/04/29 00:13:53;;;;;;;4.00;3.40;;;12.90;53.30;;;;;;4850210;29;20133;-85
2022/04/29 00:16:19;;;;;;;4.97;3.80;;;12.90;53.60;;;;;;4821902;29;20073;-90
2022/04/29 00:18:45;;;;;;;4.28;3.88;;;12.80;53.50;;;;;;4853565;29;20053;-91
2022/04/29 00:21:11;;;;;;;5.97;4.43;;;12.90;53.40;;;;;;4864094;29;20060;-86
2022/04/29 00:23:37;;;;;;;6.47;4.43;;;12.80;53.50;;;;;;4870502;29;20053;-92
2022/04/29 00:26:03;;;;;;;6.20;4.18;;;12.90;53.40;;;;;;4854552;29;20438;-93
2022/04/29 00:28:30;;;;;;;5.05;4.00;;;12.90;53.50;;;;;;4855830;29;20435;-92
2022/04/29 00:30:56;;;;;;;5.07;4.57;;;12.90;53.50;;;;;;4829836;29;20128;-92
2022/04/29 00:33:22;;;;;;;5.60;4.57;;;12.90;53.50;;;;;;4861921;29;20038;-92
2022/04/29 00:35:48;;;;;;;5.95;4.78;;;12.90;53.60;;;;;;4870981;29;20041;-91
2022/04/29 00:38:16;;;;;;;5.65;4.75;;;12.80;53.60;;;;;;4865327;29;20038;-91
2022/04/29 00:40:42;;;;;;;5.78;4.78;;;12.80;53.80;;;;;;4878848;29;20029;-86
2022/04/29 00:43:11;;;;;;;5.47;4.57;;;12.80;53.70;;;;;;4867302;29;20041;-84
2022/04/29 00:45:37;;;;;;;5.43;4.40;;;12.80;53.70;;;;;;4877632;29;20040;-82
2022/04/29 00:48:03;;;;;;;5.10;4.55;;;12.80;53.80;;;;;;4863521;29;20049;-94
2022/04/29 00:50:30;;;;;;;6.47;5.03;;;12.70;53.80;;;;;;4830236;29;20060;-95
2022/04/29 00:52:59;;;;;;;7.53;4.95;;;12.80;53.80;;;;;;4854451;29;20057;-90
2022/04/29 00:55:26;;;;;;;4.55;4.15;;;12.70;54.00;;;;;;4854461;29;20124;-90
2022/04/29 00:58:12;;;;;;;5.65;4.93;;;12.70;54.00;;;;;;4853200;29;20041;-90
2022/04/29 01:00:39;;;;;;;6.55;5.47;;;12.70;54.00;;;;;;4840810;29;20037;-90
2022/04/29 01:03:05;;;;;;;6.65;4.80;;;12.70;53.90;;;;;;4840671;29;20046;-90
2022/04/29 01:05:33;;;;;;;5.78;4.75;;;12.70;54.00;;;;;;4852650;29;20040;-89
2022/04/29 01:07:59;;;;;;;9.18;5.18;;;12.70;53.90;;;;;;4853025;29;20076;-91
2022/04/29 01:10:25;;;;;;;6.95;5.00;;;12.60;54.00;;;;;;4840039;29;20040;-90
2022/04/29 01:12:59;;;;;;;5.85;4.95;;;12.60;54.10;;;;;;4826896;29;20063;-91
2022/04/29 01:15:26;;;;;;;7.28;5.55;;;12.60;54.10;;;;;;4824549;29;20033;-91
2022/04/29 01:17:55;;;;;;;6.20;5.60;;;12.60;54.00;;;;;;4840416;29;20130;-89
2022/04/29 01:20:26;;;;;;;7.50;5.60;;;12.60;53.90;;;;;;4825874;29;20040;-92
2022/04/29 01:22:52;;;;;;;7.35;5.65;;;12.60;53.90;;;;;;4819153;29;20064;-91
2022/04/29 01:25:18;;;;;;;8.18;6.00;;;12.60;53.80;;;;;;4837217;29;20041;-93
2022/04/29 01:27:50;;;;;;;6.93;5.35;;;12.50;53.70;;;;;;4854480;29;20062;-91
2022/04/29 01:30:18;;;;;;;7.10;5.70;;;12.40;53.80;;;;;;4843411;29;20046;-91
2022/04/29 01:32:45;;;;;;;5.68;4.97;;;12.50;53.80;;;;;;4828804;29;20045;-88
2022/04/29 01:35:12;;;;;;;7.20;5.72;;;12.40;54.40;;;;;;4839488;29;20034;-90
2022/04/29 01:37:39;;;;;;;6.72;5.30;;;12.40;53.70;;;;;;4849773;29;20030;-89
2022/04/29 01:40:07;;;;;;;7.28;5.65;;;12.40;53.70;;;;;;4858698;29;20017;-89
2022/04/29 01:42:33;;;;;;;6.63;5.72;;;12.40;53.80;;;;;;4840781;29;20042;-87
2022/04/29 01:44:59;;;;;;;7.38;6.10;;;12.40;53.80;;;;;;4861995;29;20034;-86
2022/04/29 01:47:27;;;;;;;6.63;5.43;;;12.40;54.40;;;;;;4859798;29;20045;-88
2022/04/29 01:50:26;;;;;;;6.43;5.72;;;12.40;54.00;;;;;;4875693;29;20026;-91
2022/04/29 01:52:52;;;;;;;6.93;5.78;;;12.30;53.90;;;;;;4847315;29;20052;-87
2022/04/29 01:55:19;;;;;;;7.10;5.53;;;12.30;53.90;;;;;;4876476;29;20034;-89
2022/04/29 01:57:49;;;;;;;7.45;5.88;;;12.30;53.90;;;;;;4840320;29;20037;-91
2022/04/29 02:00:17;;;;;;;9.68;5.85;;;12.30;54.00;;;;;;4858924;29;20045;-91
2022/04/29 02:02:47;;;;;;;8.65;6.03;;;12.30;54.00;;;;;;4843577;29;20068;-91
2022/04/29 02:05:14;;;;;;;9.55;6.22;;;12.20;53.90;;;;;;4844307;29;20135;-91
2022/04/29 02:07:44;;;;;;;6.85;6.15;;;12.30;54.00;;;;;;4839507;29;20098;-92
2022/04/29 02:10:10;;;;;;;9.52;6.78;;;12.30;54.10;;;;;;4838966;29;20047;-92
2022/04/29 02:12:37;;;;;;;7.32;6.25;;;12.30;54.10;;;;;;4841495;29;20439;-89
2022/04/29 02:15:21;;;;;;;9.95;7.13;;;12.30;54.10;;;;;;4844395;29;20029;-90
2022/04/29 02:17:49;;;;;;;10.15;7.32;;;12.30;54.10;;;;;;4831616;29;20034;-92
2022/04/29 02:20:15;;;;;;;10.45;7.65;;;12.20;54.10;;;;;;4850605;29;20037;-89
2022/04/29 02:22:42;;;;;;;11.15;7.97;;;12.20;54.10;;;;;;4848618;29;20124;-93
2022/04/29 02:25:08;;;;;;;11.98;8.43;;;12.30;54.30;;;;;;4836678;29;20572;-93
2022/04/29 02:27:36;;;;;;;10.98;7.93;;;12.20;54.30;;;;;;4841630;29;20110;-90
2022/04/29 02:30:04;;;;;;;10.40;6.90;;;12.20;54.30;;;;;;4839696;29;20052;-86
2022/04/29 02:32:31;;;;;;;9.88;7.90;;;12.20;54.30;;;;;;4865965;29;20042;-90
2022/04/29 02:34:58;;;;;;;11.68;7.43;;;12.30;54.40;;;;;;4838891;29;20064;-88
2022/04/29 02:37:27;;;;;;;10.00;7.78;;;12.30;54.40;;;;;;4838736;29;20034;-89
2022/04/29 02:39:53;;;;;;;9.27;7.22;;;12.20;54.40;;;;;;4823399;29;20037;-90
2022/04/29 02:42:20;;;;;;;9.15;7.63;;;12.30;54.30;;;;;;4838357;29;20505;-88
2022/04/29 02:44:46;;;;;;;7.50;6.47;;;12.30;54.40;;;;;;4870284;29;20021;-87
2022/04/29 02:47:13;;;;;;;9.38;6.80;;;12.30;54.30;;;;;;4859250;29;20057;-84
2022/04/29 02:49:44;;;;;;;11.73;7.28;;;12.30;54.40;;;;;;4869208;29;20168;-84
2022/04/29 02:52:14;;;;;;;8.95;6.60;;;12.20;54.30;;;;;;4854097;29;20469;-88
2022/04/29 02:54:41;;;;;;;8.20;6.53;;;12.30;54.40;;;;;;4832779;29;20041;-88
2022/04/29 02:57:15;;;;;;;9.27;6.55;;;12.20;54.40;;;;;;4865522;29;20041;-85
2022/04/29 02:59:42;;;;;;;6.90;6.00;;;12.20;54.50;;;;;;4840146;29;20053;-88
2022/04/29 03:02:08;;;;;;;8.85;6.47;;;12.20;54.50;;;;;;4826373;29;20122;-90
2022/04/29 03:04:36;;;;;;;9.10;5.85;;;12.20;54.50;;;;;;4824900;29;20760;-87
2022/04/29 03:07:02;;;;;;;9.18;5.70;;;12.20;54.50;;;;;;4851026;29;20593;-91
2022/04/29 03:09:42;;;;;;;10.02;6.20;;;12.20;54.50;;;;;;4838088;29;20045;-91
2022/04/29 03:12:13;;;;;;;7.82;6.32;;;12.20;54.40;;;;;;4854245;29;20038;-91
2022/04/29 03:14:39;;;;;;;9.25;6.15;;;12.20;54.50;;;;;;4818092;29;20045;-91
2022/04/29 03:17:05;;;;;;;8.77;6.57;;;12.20;54.40;;;;;;4823540;29;20033;-93
2022/04/29 03:19:31;;;;;;;9.25;6.50;;;12.30;54.50;;;;;;4849662;29;20501;-92
2022/04/29 03:21:57;;;;;;;8.45;6.30;;;12.20;54.40;;;;;;4823609;29;20026;-91
2022/04/29 03:24:24;;;;;;;9.48;6.43;;;12.30;54.40;;;;;;4839662;29;20491;-91
2022/04/29 03:26:50;;;;;;;9.10;6.43;;;12.30;54.40;;;;;;4825241;29;20153;-90
2022/04/29 03:29:19;;;;;;;11.15;6.57;;;12.30;54.30;;;;;;4837723;29;20093;-91
2022/04/29 03:31:45;;;;;;;10.98;6.70;;;12.30;54.30;;;;;;4848430;29;20042;-89
2022/04/29 03:34:28;;;;;;;8.65;6.53;;;12.30;54.30;;;;;;4837582;29;20034;-90
2022/04/29 03:36:54;;;;;;;10.00;6.65;;;12.40;54.40;;;;;;4823879;29;20033;-89
2022/04/29 03:39:21;;;;;;;8.88;6.40;;;12.30;54.30;;;;;;4831537;29;20037;-90
2022/04/29 03:41:47;;;;;;;10.30;6.38;;;12.30;54.40;;;;;;4821600;29;20094;-90
2022/04/29 03:44:17;;;;;;;8.45;5.80;;;12.30;54.40;;;;;;4836788;29;20049;-91
2022/04/29 03:46:43;;;;;;;7.07;5.53;;;12.30;54.40;;;;;;4839237;29;20117;-88
2022/04/29 03:52:25;;;;;;;7.38;5.55;;;12.30;54.30;;;;;;4792016;29;20046;-88
2022/04/29 03:55:00;;;;;;;6.03;4.95;;;12.40;54.10;;;;;;4831033;29;20058;-89
2022/04/29 03:57:29;;;;;;;8.23;4.95;;;12.40;53.90;;;;;;4831529;29;20126;-82
2022/04/29 03:59:55;;;;;;;8.65;4.43;;;12.40;53.80;;;;;;4838313;29;20074;-86
2022/04/29 04:02:21;;;;;;;7.05;5.03;;;12.40;53.60;;;;;;4809041;29;20047;-87
2022/04/29 04:04:47;;;;;;;4.28;3.88;;;12.50;53.50;;;;;;4805852;29;20594;-87
2022/04/29 04:07:14;;;;;;;6.07;4.20;;;12.40;53.30;;;;;;4786081;29;20046;-89
2022/04/29 04:09:57;;;;;;;6.30;3.75;;;12.50;53.10;;;;;;4792015;29;20065;-86
2022/04/29 04:12:27;;;;;;;3.97;3.38;;;12.60;52.90;;;;;;4792997;29;20038;-86
2022/04/29 04:15:31;;;;;;;3.53;3.10;;;12.80;52.50;;;;;;4779490;30;20047;-87
2022/04/29 04:17:59;;;;;;;5.88;2.95;;;13.20;52.00;;;;;;4774457;29;20097;-86
2022/04/29 04:20:27;;;;;;;3.97;3.00;;;13.40;51.70;;;;;;4779284;30;20044;-87
2022/04/29 04:23:11;;;;;;;3.47;2.80;;;13.70;51.50;;;;;;4778921;29;20062;-92
2022/04/29 04:25:37;;;;;;;3.47;2.90;;;14.00;51.10;;;;;;4769609;29;20081;-84
2022/04/29 04:28:04;;;;;;;2.45;2.25;;;14.20;50.70;;;;;;4774074;29;20058;-88
2022/04/29 04:30:46;;;;;;;5.80;2.58;;;14.50;50.10;;;;;;4773769;29;20039;-87
2022/04/29 04:33:13;;;;;;;5.18;2.28;;;14.80;49.50;;;;;;4781310;29;20511;-86
2022/04/29 04:35:39;;;;;;;3.08;2.30;;;15.00;49.00;;;;;;4781965;29;20374;-86
2022/04/29 04:38:06;;;;;;;2.95;2.08;;;15.20;48.70;;;;;;4767590;29;20043;-87
2022/04/29 04:40:49;;;;;;;2.78;2.15;;;15.40;48.60;;;;;;4748722;29;20043;-89
2022/04/29 04:43:15;;;;;;;2.47;1.60;;;15.60;48.10;;;;;;4750551;29;20045;-88
2022/04/29 04:45:42;;;;;;;2.67;1.55;;;15.90;48.10;;;;;;4808306;29;20525;-86
2022/04/29 04:48:27;;;;;;;2.58;1.60;;;16.00;47.90;;;;;;4850823;29;20041;-91
2022/04/29 04:51:05;;;;;;;2.58;1.50;;;16.20;47.20;;;;;;4836882;29;20561;-92
2022/04/29 04:53:34;;;;;;;1.70;1.30;;;16.40;47.30;;;;;;4821164;29;20042;-89
2022/04/29 04:56:01;;;;;;;1.85;1.73;;;16.60;47.10;;;;;;4841354;29;20060;-85
2022/04/29 04:58:27;;;;;;;2.63;1.98;;;16.70;47.00;;;;;;4856698;29;20026;-84
2022/04/29 05:00:53;;;;;;;2.55;1.25;;;16.80;46.70;;;;;;4857672;29;20044;-85
2022/04/29 05:03:38;;;;;;;2.20;1.33;;;17.00;46.60;;;;;;4842044;29;20498;-82
2022/04/29 05:06:37;;;;;;;1.65;1.50;;;17.20;46.60;;;;;;4835419;29;20627;-85
2022/04/29 05:09:05;;;;;;;2.80;1.25;;;17.30;46.40;;;;;;4866292;29;20094;-85
2022/04/29 05:11:33;;;;;;;2.17;1.50;;;17.40;46.20;;;;;;4838487;29;20444;-87
2022/04/29 05:14:03;;;;;;;3.90;1.40;;;17.60;46.10;;;;;;4839035;29;20061;-86
2022/04/29 05:16:35;;;;;;;2.40;1.50;;;17.70;45.80;;;;;;4852732;29;20065;-87
2022/04/29 05:19:21;;;;;;;1.40;1.30;;;17.80;45.70;;;;;;4849983;29;20041;-86
2022/04/29 05:21:47;;;;;;;1.67;1.40;;;18.00;45.60;;;;;;4853862;29;20034;-87
2022/04/29 05:24:14;;;;;;;1.20;1.08;;;18.10;45.40;;;;;;4824310;29;20293;-84
2022/04/29 05:27:09;;;;;;;1.37;1.27;;;18.20;45.20;;;;;;4810137;29;20125;-87
2022/04/29 05:29:54;;;;;;;1.30;1.20;;;18.40;45.00;;;;;;4829822;29;20054;-86
2022/04/29 05:32:39;;;;;;;2.20;1.30;;;18.50;45.00;;;;;;4831685;29;20510;-86
2022/04/29 05:35:24;;;;;;;2.28;1.25;;;18.70;44.80;;;;;;4831296;29;20042;-87
2022/04/29 05:38:09;;;;;;;2.20;1.10;;;18.90;44.70;;;;;;4810667;29;20514;-88
2022/04/29 05:43:20;;;;;;;2.25;0.98;;;19.20;44.40;;;;;;4810545;29;20110;-87
2022/04/29 05:45:46;;;;;;;1.30;0.95;;;19.30;44.10;;;;;;4809414;29;20042;-86
2022/04/29 05:48:12;;;;;;;1.10;0.98;;;19.40;44.00;;;;;;4809732;29;20542;-86
2022/04/29 05:50:38;;;;;;;1.42;0.98;;;19.50;43.80;;;;;;4794783;29;20132;-87
2022/04/29 05:53:04;;;;;;;2.25;0.95;;;19.60;43.80;;;;;;4810172;29;20042;-83
2022/04/29 05:55:31;;;;;;;4.18;1.20;;;19.70;43.60;;;;;;4795653;29;20042;-85
2022/04/29 05:57:59;;;;;;;6.60;1.40;;;19.80;42.40;;;;;;4795053;29;20045;-85
2022/04/29 06:00:25;;;;;;;3.67;1.08;;;19.90;40.00;;;;;;4769594;29;20055;-82
2022/04/29 06:03:03;;;;;;;4.03;1.50;;;20.00;38.90;;;;;;4835680;29;20140;-89
2022/04/29 06:05:31;;;;;;;1.05;0.90;;;20.10;38.70;;;;;;4842550;29;20413;-82
2022/04/29 06:07:57;;;;;;;5.25;1.27;;;20.20;38.70;;;;;;4858823;29;20045;-83
2022/04/29 06:10:33;;;;;;;2.67;1.40;;;20.30;37.70;;;;;;4849998;29;20077;-82
2022/04/29 06:12:59;;;;;;;3.75;1.13;;;20.40;36.20;;;;;;4849539;29;20025;-82
2022/04/29 06:15:31;;;;;;;7.47;4.50;;;20.50;36.10;;;;;;4852798;29;20037;-82
2022/04/29 06:18:32;;;;;;;6.00;3.42;;;20.60;36.00;;;;;;4830237;29;20042;-82
2022/04/29 06:21:01;;;;;;;5.10;2.53;;;20.70;36.00;;;;;;4847264;29;20037;-81
2022/04/29 06:23:39;;;;;;;5.18;2.60;;;20.80;35.50;;;;;;4837033;29;20046;-80
2022/04/29 06:26:05;;;;;;;6.57;1.95;;;20.90;35.20;;;;;;4850271;29;20077;-82
2022/04/29 06:28:35;;;;;;;1.67;1.40;;;21.00;35.30;;;;;;4848759;29;20072;-82
2022/04/29 06:31:01;;;;;;;5.70;1.42;;;21.10;34.30;;;;;;4862363;29;20038;-83
2022/04/29 06:33:40;;;;;;;;;;;21.10;33.60;;;;;;4850568;29;20044;-81
2022/04/29 06:36:09;;;;;;;5.32;1.40;;;21.20;33.30;;;;;;4853722;29;19920;-82
2022/04/29 06:38:37;;;;;;;2.28;1.45;;;21.20;33.10;;;;;;4850098;29;20148;-81
2022/04/29 06:41:23;;;;;;;2.97;1.33;;;21.30;32.30;;;;;;4839577;29;20084;-81
2022/04/29 06:43:59;;;;;;;3.72;1.20;;;21.30;32.80;;;;;;4848839;29;20037;-81
2022/04/29 06:46:44;;;;;;;3.97;1.23;;;21.40;32.70;;;;;;4848609;29;20038;-81
2022/04/29 06:49:43;;;;;;;5.32;1.30;;;21.40;32.60;;;;;;4850738;29;20048;-82
2022/04/29 06:52:27;;;;;;;3.50;1.67;;;21.50;32.70;;;;;;4849317;29;20034;-83
2022/04/29 06:55:12;;;;;;;3.47;1.38;;;21.60;32.50;;;;;;4838326;29;20129;-82
2022/04/29 06:57:38;;;;;;;2.92;1.40;;;21.60;32.20;;;;;;4835649;29;20041;-81
2022/04/29 07:00:05;;;;;;;3.03;1.60;;;21.60;32.90;;;;;;4850279;29;20129;-81
2022/04/29 07:02:32;;;;;;;4.40;1.20;;;21.70;31.70;;;;;;4847060;29;20576;-84
2022/04/29 07:04:59;;;;;;;3.08;1.17;;;21.70;31.90;;;;;;4837938;29;20042;-81
2022/04/29 07:07:28;;;;;;;5.68;1.70;;;21.70;31.70;;;;;;4836817;29;20049;-81
2022/04/29 07:10:05;;;;;;;3.67;1.60;;;21.80;31.70;;;;;;4842618;29;20046;-81
2022/04/29 07:12:50;;;;;;;5.88;1.63;;;21.80;31.30;;;;;;4852990;29;20113;-80
2022/04/29 07:15:17;;;;;;;3.45;1.30;;;21.70;31.20;;;;;;4843051;29;20038;-82
2022/04/29 07:17:45;;;;;;;2.85;1.20;;;21.60;31.60;;;;;;4835149;29;20056;-81
2022/04/29 07:20:13;;;;;;;5.63;1.33;;;21.40;31.10;;;;;;4846199;29;20413;-82
2022/04/29 07:22:40;;;;;;;7.43;1.83;;;21.30;31.10;;;;;;4851948;29;20033;-82
2022/04/29 07:25:08;;;;;;;3.45;1.42;;;21.20;31.20;;;;;;4848268;29;20042;-81
2022/04/29 07:27:34;;;;;;;6.18;1.85;;;21.30;31.10;;;;;;4848172;29;20058;-83
2022/04/29 07:30:03;;;;;;;2.28;1.20;;;21.30;30.70;;;;;;4847369;29;20049;-81
2022/04/29 07:32:42;;;;;;;3.30;1.40;;;21.30;30.50;;;;;;4847970;29;20044;-83
2022/04/29 07:43:53;;;;;;;10.18;5.75;;;20.70;30.30;;;;;;4851729;29;20036;-83
2022/04/29 07:46:21;;;;;;;12.50;5.57;;;20.70;30.60;;;;;;4848887;29;20038;-82
2022/04/29 07:49:07;;;;;;;10.23;4.22;;;20.70;30.50;;;;;;4843982;29;20676;-82
2022/04/29 07:51:33;;;;;;;5.43;2.67;;;20.70;31.30;;;;;;4848058;29;20144;-82
2022/04/29 07:53:59;;;;;;;6.85;2.55;;;20.70;31.20;;;;;;4835791;29;20074;-82
2022/04/29 07:56:26;;;;;;;6.35;1.80;;;20.60;31.30;;;;;;4835733;29;20046;-82
2022/04/29 07:58:57;;;;;;;2.63;1.83;;;20.60;31.50;;;;;;4847178;29;20037;-82
2022/04/29 08:01:25;;;;;;;3.40;1.60;;;20.50;30.80;;;;;;4847415;29;20048;-82
2022/04/29 08:03:55;;;;;;;5.70;1.70;;;20.30;30.50;;;;;;4851246;29;20037;-82
2022/04/29 08:06:22;;;;;;;2.70;1.38;;;20.20;30.00;;;;;;4846061;29;20047;-82
2022/04/29 08:08:48;;;;;;;4.93;1.75;;;20.10;30.50;;;;;;4834049;29;20038;-82
2022/04/29 08:11:17;;;;;;;3.55;1.55;;;20.00;30.60;;;;;;4836223;29;20183;-82
2022/04/29 08:14:22;;;;;;;5.57;1.85;;;19.90;30.60;;;;;;4838156;29;20057;-81
2022/04/29 08:16:54;;;;;;;3.85;1.67;;;19.80;30.60;;;;;;4837683;29;20437;-81
2022/04/29 08:19:50;;;;;;;6.95;1.75;;;19.70;31.00;;;;;;4818138;29;20048;-82
2022/04/29 08:22:19;;;;;;;6.20;2.10;;;19.60;30.80;;;;;;4817597;29;20049;-83
2022/04/29 08:24:45;;;;;;;4.85;1.85;;;19.50;31.00;;;;;;4816312;29;20038;-82
2022/04/29 08:27:12;;;;;;;2.60;1.50;;;19.50;31.30;;;;;;4812443;29;20518;-82
2022/04/29 08:29:39;;;;;;;2.35;1.70;;;19.40;31.20;;;;;;4827093;29;20038;-82
2022/04/29 08:32:06;;;;;;;4.78;1.65;;;19.30;31.40;;;;;;4815462;29;20038;-82
2022/04/29 08:34:35;;;;;;;3.80;1.90;;;19.30;31.60;;;;;;4810854;29;20046;-83
2022/04/29 08:37:03;;;;;;;4.43;1.85;;;19.20;30.80;;;;;;4815854;29;20128;-81
2022/04/29 08:39:31;;;;;;;7.97;1.92;;;19.10;30.50;;;;;;4815801;29;20053;-82
2022/04/29 08:42:00;;;;;;;6.03;1.60;;;19.00;30.70;;;;;;4823146;29;20042;-82
2022/04/29 08:44:30;;;;;;;3.10;1.90;;;18.90;31.00;;;;;;4819119;29;20042;-82
2022/04/29 08:47:35;;;;;;;3.47;1.73;;;18.90;31.10;;;;;;4815499;29;20071;-82
2022/04/29 08:50:19;;;;;;;6.00;1.90;;;18.70;31.50;;;;;;4842548;29;20421;-82
2022/04/29 08:52:46;;;;;;;6.65;2.28;;;18.70;31.50;;;;;;4852138;29;20038;-82
2022/04/29 09:00:58;;;;;;;4.40;1.90;;;18.50;31.90;;;;;;4855911;29;20049;-80
2022/04/29 09:03:24;;;;;;;2.80;1.80;;;18.50;32.10;;;;;;4837447;29;20088;-82
2022/04/29 09:05:50;;;;;;;2.95;1.90;;;18.50;32.10;;;;;;4836854;29;20137;-81
2022/04/29 09:08:22;;;;;;;5.63;1.55;;;18.40;32.00;;;;;;4853648;29;20730;-79
2022/04/29 09:10:59;;;;;;;4.28;1.70;;;18.40;32.00;;;;;;4851892;29;20489;-84
2022/04/29 09:13:35;;;;;;;7.20;1.50;;;18.30;32.10;;;;;;4852967;29;20026;-82
2022/04/29 09:16:12;;;;;;;;;;;18.20;32.10;;;;;;4851841;29;20041;-83
2022/04/29 09:18:47;;;;;;;3.28;1.83;;;18.20;32.20;;;;;;4851283;29;19924;-81
2022/04/29 09:21:17;;;;;;;7.70;2.05;;;18.20;32.30;;;;;;4849442;29;20038;-83
2022/04/29 09:23:54;;;;;;;4.97;1.98;;;18.10;32.40;;;;;;4852421;29;20366;-83
2022/04/29 09:26:39;;;;;;;6.30;1.80;;;18.10;32.80;;;;;;4855042;29;20498;-83
2022/04/29 09:29:24;;;;;;;3.78;1.55;;;18.10;32.80;;;;;;4852958;29;20041;-82
2022/04/29 09:32:19;;;;;;;3.75;1.60;;;18.10;33.10;;;;;;4848479;29;20077;-82
2022/04/29 09:35:04;;;;;;;4.38;1.75;;;18.10;33.00;;;;;;4852799;29;20045;-82
2022/04/29 09:37:32;;;;;;;4.88;3.05;;;18.00;33.50;;;;;;4850496;29;20141;-83
2022/04/29 09:40:02;;;;;;;4.60;2.47;;;18.00;32.70;;;;;;4865774;29;20128;-81
2022/04/29 09:42:37;;;;;;;8.13;3.20;;;18.00;32.50;;;;;;4849683;29;21172;-83
2022/04/29 09:45:33;;;;;;;7.30;3.20;;;18.00;32.90;;;;;;4822496;29;20037;-83
2022/04/29 09:47:58;;;;;;;3.00;1.90;;;18.00;33.30;;;;;;4832293;29;20033;-80
2022/04/29 09:50:45;;;;;;;6.03;1.75;;;18.00;33.10;;;;;;4842320;29;20053;-84
2022/04/29 09:53:20;;;;;;;3.03;2.03;;;17.90;32.90;;;;;;4863954;29;20044;-82
2022/04/29 09:56:06;;;;;;;3.90;2.08;;;17.90;33.00;;;;;;4848938;29;20048;-83
2022/04/29 09:58:33;;;;;;;4.22;1.67;;;17.80;33.10;;;;;;4848176;29;20041;-83
2022/04/29 10:01:04;;;;;;;4.97;1.65;;;17.80;33.20;;;;;;4822757;29;20104;-83
2022/04/29 10:03:31;;;;;;;1.90;1.35;;;17.80;33.30;;;;;;4850595;29;20046;-83
2022/04/29 10:06:01;;;;;;;3.17;1.55;;;17.80;33.40;;;;;;4850279;29;20045;-82
2022/04/29 10:08:30;;;;;;;4.20;1.70;;;17.80;33.20;;;;;;4864083;29;20062;-83
2022/04/29 10:10:57;;;;;;;3.25;1.77;;;17.80;33.10;;;;;;4838528;29;20545;-87
2022/04/29 10:13:26;;;;;;;7.65;1.88;;;17.80;33.20;;;;;;4854390;29;20116;-80
2022/04/29 10:16:08;;;;;;;6.32;1.60;;;17.80;34.20;;;;;;4852148;29;20065;-81
2022/04/29 10:22:09;;;;;;;6.47;2.00;;;18.10;36.40;;;;;;4841047;29;20057;-89
2022/04/29 10:24:35;;;;;;;4.78;1.55;;;18.20;35.00;;;;;;4854555;29;20041;-88
2022/04/29 10:27:01;;;;;;;4.38;1.80;;;18.20;34.20;;;;;;4875557;29;20036;-84
2022/04/29 10:29:27;;;;;;;4.13;1.60;;;18.10;33.50;;;;;;4848730;29;20021;-86
2022/04/29 10:32:10;;;;;;;2.75;1.13;;;18.00;33.30;;;;;;4847900;29;20053;-85
2022/04/29 10:34:36;;;;;;;3.17;1.38;;;18.00;33.40;;;;;;4853887;29;20241;-90
2022/04/29 10:37:13;;;;;;;2.95;1.48;;;18.00;33.20;;;;;;4881699;29;20033;-91
2022/04/29 10:39:41;;;;;;;2.75;1.75;;;17.90;33.10;;;;;;4861658;29;20045;-89
2022/04/29 10:42:09;;;;;;;4.95;1.45;;;17.80;32.80;;;;;;4842787;29;20045;-92
2022/04/29 10:44:59;;;;;;;4.70;1.70;;;17.80;33.30;;;;;;4854535;29;20044;-93
2022/04/29 10:47:47;;;;;;;3.13;1.40;;;17.80;33.40;;;;;;4838037;29;20041;-90
2022/04/29 10:50:31;;;;;;;2.33;1.60;;;17.80;33.60;;;;;;4839450;29;20050;-88
2022/04/29 10:53:16;;;;;;;5.15;1.90;;;17.80;33.60;;;;;;4848367;29;20060;-90
2022/04/29 10:55:45;;;;;;;6.93;1.50;;;17.80;33.60;;;;;;4855147;29;20037;-90
2022/04/29 10:58:45;;;;;;;2.95;1.67;;;17.80;33.60;;;;;;4851971;29;20041;-91
2022/04/29 11:01:14;;;;;;;3.85;1.55;;;17.80;33.40;;;;;;4855785;29;20049;-93
2022/04/29 11:03:47;;;;;;;4.65;1.60;;;17.80;33.50;;;;;;4838806;29;20064;-90
2022/04/29 11:06:14;;;;;;;2.53;1.60;;;17.80;33.70;;;;;;4823958;29;20532;-89
2022/04/29 11:08:42;;;;;;;5.50;1.52;;;17.80;33.60;;;;;;4838898;29;20034;-90
2022/04/29 11:11:09;;;;;;;6.05;1.90;;;17.80;33.40;;;;;;4837852;29;20042;-89
2022/04/29 11:13:58;;;;;;;10.60;1.83;;;17.70;33.40;;;;;;4838935;29;20049;-90
2022/04/29 11:16:52;;;;;;;4.87;2.13;;;17.70;33.50;;;;;;4851251;29;20029;-90
2022/04/29 11:19:47;;;;;;;5.05;1.60;;;17.70;33.40;;;;;;4849112;29;20080;-90
2022/04/29 11:25:06;;;;;;;4.90;1.95;;;17.70;33.90;;;;;;4850632;29;20160;-89
2022/04/29 11:27:43;;;;;;;4.80;2.15;;;17.70;34.80;;;;;;4839116;29;20045;-87
2022/04/29 11:30:20;;;;;;;3.67;1.58;;;17.80;35.80;;;;;;4838549;29;20737;-86
2022/04/29 11:33:03;;;;;;;3.28;1.73;;;17.90;34.40;;;;;;4875106;29;20054;-80
2022/04/29 11:35:29;;;;;;;5.43;1.75;;;17.80;33.80;;;;;;4874932;29;20030;-83
2022/04/29 11:37:56;;;;;;;3.60;2.00;;;17.80;33.70;;;;;;4874382;29;20035;-89
2022/04/29 11:40:25;;;;;;;3.92;1.42;;;17.80;33.70;;;;;;4852896;29;20041;-87
2022/04/29 11:42:51;;;;;;;2.92;1.67;;;17.80;33.80;;;;;;4852649;29;20041;-88
2022/04/29 11:45:21;;;;;;;3.53;1.65;;;17.80;33.60;;;;;;4842009;29;20042;-86
2022/04/29 11:47:49;;;;;;;4.18;1.83;;;17.80;33.60;;;;;;4868580;29;20038;-88
2022/04/29 11:50:16;;;;;;;4.07;1.55;;;17.80;33.50;;;;;;4849280;29;20465;-87
2022/04/29 11:52:42;;;;;;;3.88;1.60;;;17.80;33.80;;;;;;4851180;29;20038;-89
2022/04/29 11:55:14;;;;;;;3.42;1.77;;;17.80;33.80;;;;;;4846402;29;20033;-89
2022/04/29 11:57:54;;;;;;;3.38;1.83;;;17.80;33.80;;;;;;4835702;29;20042;-89
2022/04/29 12:00:25;;;;;;;5.47;1.77;;;17.80;33.60;;;;;;4848177;29;20037;-89
2022/04/29 12:02:52;;;;;;;4.65;1.65;;;17.80;33.20;;;;;;4847199;29;20045;-89
2022/04/29 12:05:27;;;;;;;7.03;1.60;;;17.80;33.30;;;;;;4851195;29;20529;-85
2022/04/29 12:07:53;;;;;;;8.82;2.05;;;17.70;33.40;;;;;;4847095;29;20076;-92
2022/04/29 12:10:32;;;;;;;5.53;1.60;;;17.80;34.10;;;;;;4850287;29;20046;-88
2022/04/29 12:13:00;;;;;;;4.40;1.73;;;17.80;34.10;;;;;;4858002;29;20033;-84
2022/04/29 12:15:30;;;;;;;3.65;1.98;;;17.70;34.20;;;;;;4854419;29;20103;-83
2022/04/29 12:18:06;;;;;;;4.40;2.13;;;17.80;34.30;;;;;;4856808;29;20044;-85
2022/04/29 12:20:32;;;;;;;3.25;1.73;;;17.70;33.90;;;;;;4854306;29;20093;-94
2022/04/29 12:23:22;;;;;;;6.80;1.70;;;17.70;34.10;;;;;;4836485;29;20049;-94
2022/04/29 12:25:49;;;;;;;13.35;1.73;;;17.70;34.20;;;;;;4846571;29;20044;-93
2022/04/29 12:28:26;;;;;;;7.03;1.95;;;17.70;34.70;;;;;;4845167;29;20037;-95
2022/04/29 12:36:53;;;;;;;6.80;1.80;;;17.70;34.40;;;;;;4846366;29;20037;-89
2022/04/29 12:39:24;;;;;;;5.95;1.70;;;17.70;33.70;;;;;;4883258;29;20053;-87
2022/04/29 12:42:01;;;;;;;6.72;1.70;;;17.70;33.20;;;;;;4883553;29;20050;-89
2022/04/29 12:45:10;;;;;;;6.70;1.75;;;17.50;32.90;;;;;;4866790;29;20045;-93
2022/04/29 12:47:49;;;;;;;5.05;1.70;;;17.50;32.80;;;;;;4863139;29;20049;-92
2022/04/29 12:50:24;;;;;;;6.65;2.13;;;17.40;32.80;;;;;;4848798;29;20044;-91
2022/04/29 12:52:50;;;;;;;;;;;17.40;32.90;;;;;;4859300;29;20094;-89
2022/04/29 12:55:16;;;;;;;9.60;2.03;;;17.30;33.20;;;;;;4844586;29;20009;-92
2022/04/29 12:57:42;;;;;;;3.85;1.80;;;17.30;34.40;;;;;;4830288;29;20124;-93
2022/04/29 13:00:09;;;;;;;3.45;1.40;;;17.40;33.80;;;;;;4843290;29;20585;-91
2022/04/29 13:02:35;;;;;;;4.97;1.50;;;17.30;33.40;;;;;;4839403;29;20072;-91
2022/04/29 13:05:01;;;;;;;4.78;1.88;;;17.30;33.10;;;;;;4823832;29;20436;-93
2022/04/29 13:07:32;;;;;;;3.53;1.27;;;17.30;33.20;;;;;;4838993;29;20038;-90
2022/04/29 13:09:58;;;;;;;4.38;1.40;;;17.30;33.30;;;;;;4820646;29;20513;-90
2022/04/29 13:12:25;;;;;;;5.63;1.90;;;17.20;33.80;;;;;;4850509;29;20034;-89
2022/04/29 13:15:05;;;;;;;7.68;1.73;;;17.30;34.40;;;;;;4840404;29;20117;-92
2022/04/29 13:17:31;;;;;;;2.80;1.40;;;17.30;34.80;;;;;;4849901;29;20041;-91
2022/04/29 13:19:57;;;;;;;6.65;1.88;;;17.30;34.80;;;;;;4838555;29;20521;-89
2022/04/29 13:22:23;;;;;;;4.70;1.63;;;17.30;34.80;;;;;;4851430;29;20037;-93
2022/04/29 13:24:52;;;;;;;2.85;1.52;;;17.40;34.80;;;;;;4822602;29;20147;-94
2022/04/29 13:27:19;;;;;;;3.97;2.20;;;17.40;34.80;;;;;;4839038;29;20048;-89
2022/04/29 13:29:45;;;;;;;3.30;1.65;;;17.40;34.80;;;;;;4850500;29;20037;-92
2022/04/29 13:32:11;;;;;;;4.18;1.70;;;17.40;34.90;;;;;;4824086;29;20045;-93
2022/04/29 13:34:37;;;;;;;5.55;1.70;;;17.40;34.80;;;;;;4825233;29;20107;-93
2022/04/29 13:37:04;;;;;;;9.02;3.70;;;17.40;34.70;;;;;;4839127;29;20033;-91
2022/04/29 13:39:30;;;;;;;4.80;2.75;;;17.40;34.70;;;;;;4824238;29;20120;-92
2022/04/29 13:42:10;;;;;;;6.13;2.30;;;17.40;34.60;;;;;;4830780;29;20053;-89
2022/04/29 13:44:36;;;;;;;4.88;2.20;;;17.40;34.60;;;;;;4863899;29;20140;-87